Time;durP1;ratioP1;P1;durP2;ratioP2;P2;SDS_P1;SDS_P2;PMS_P1;PMS_P2;Temp;Humidity;BMP_temperature;BMP_pressure;BME280_temperature;BME280_humidity;BME280_pressure;Samples;Min_cycle;Max_cycle;Signal;HPM_P1;HPM_P2
2024/04/02 00:00:25;;;;;;;12.15;2.30;;;;;;;;;;5014091;28;20053;-74
2024/04/02 00:03:30;;;;;;;12.10;2.17;;;;;;;;;;5014070;28;20397;-74
2024/04/02 00:06:34;;;;;;;9.82;2.70;;;;;;;;;;5014509;28;20049;-73
2024/04/02 00:09:39;;;;;;;13.93;2.50;;;;;;;;;;5013973;28;20026;-74
2024/04/02 00:12:43;;;;;;;16.83;2.70;;;;;;;;;;5013968;28;20064;-74
2024/04/02 00:15:48;;;;;;;11.05;2.05;;;15.20;99.90;;;;;;5012732;28;20045;-74
2024/04/02 00:18:52;;;;;;;12.27;2.03;;;;;;;;;;5013938;28;20045;-74
2024/04/02 00:21:57;;;;;;;10.55;1.80;;;;;;;;;;5013626;28;20041;-74
2024/04/02 00:25:01;;;;;;;11.48;1.92;;;;;;;;;;5013835;28;20045;-74
2024/04/02 00:28:06;;;;;;;15.65;1.60;;;;;;;;;;5013789;28;20041;-74
2024/04/02 00:31:15;;;;;;;18.67;1.90;;;;;;;;;;5013102;28;20057;-74
2024/04/02 00:34:19;;;;;;;16.05;1.95;;;;;;;;;;5013452;28;20045;-74
2024/04/02 00:37:24;;;;;;;10.80;1.70;;;;;;;;;;5013076;28;20057;-74
2024/04/02 00:40:28;;;;;;;11.10;1.70;;;;;;;;;;5013205;28;20044;-73
2024/04/02 00:43:32;;;;;;;9.50;2.25;;;;;;;;;;5012876;28;20052;-74
2024/04/02 00:46:37;;;;;;;13.77;1.45;;;;;;;;;;5013212;28;20050;-74
2024/04/02 00:49:41;;;;;;;11.25;1.48;;;15.80;99.50;;;;;;5012927;28;20064;-74
2024/04/02 00:52:46;;;;;;;11.07;1.33;;;;;;;;;;5012758;28;20037;-74
2024/04/02 00:55:53;;;;;;;12.07;1.40;;;15.80;99.30;;;;;;5012632;28;20052;-74
2024/04/02 00:58:58;;;;;;;18.63;2.10;;;;;;;;;;5012887;28;20060;-74
2024/04/02 01:02:02;;;;;;;7.75;1.40;;;;;;;;;;5012545;28;20040;-74
2024/04/02 01:05:07;;;;;;;11.45;1.45;;;;;;;;;;5012577;28;20486;-75
2024/04/02 01:08:11;;;;;;;13.60;2.20;;;;;;;;;;5012484;28;20127;-75
2024/04/02 01:11:15;;;;;;;18.40;2.50;;;;;;;;;;5012582;28;20065;-75
2024/04/02 01:14:19;;;;;;;12.13;1.52;;;;;;;;;;5000591;28;20045;-75
2024/04/02 01:17:24;;;;;;;9.25;1.60;;;;;;;;;;5012448;28;20125;-74
2024/04/02 01:20:28;;;;;;;15.25;1.98;;;;;;;;;;5012452;28;20046;-74
2024/04/02 01:23:32;;;;;;;14.85;1.88;;;;;;;;;;5011429;28;20049;-74
2024/04/02 01:26:37;;;;;;;16.10;1.63;;;;;;;;;;5000364;28;20049;-74
2024/04/02 01:29:42;;;;;;;9.27;1.60;;;;;;;;;;5012518;28;20105;-74
2024/04/02 01:32:50;;;;;;;9.60;2.17;;;15.50;99.50;;;;;;5012332;28;20486;-74
2024/04/02 01:35:54;;;;;;;16.60;2.65;;;;;;;;;;5012402;28;20045;-74
2024/04/02 01:38:58;;;;;;;25.48;2.80;;;;;;;;;;5012330;28;20037;-74
2024/04/02 01:42:05;;;;;;;15.40;2.10;;;15.70;99.90;;;;;;5012254;28;20048;-74
2024/04/02 01:45:10;;;;;;;7.25;1.77;;;;;;;;;;5011853;28;20379;-74
2024/04/02 01:48:14;;;;;;;7.60;1.73;;;;;;;;;;5011837;28;20030;-73
2024/04/02 01:51:18;;;;;;;19.02;2.05;;;;;;;;;;5011733;28;20042;-73
2024/04/02 01:54:23;;;;;;;11.27;1.70;;;;;;;;;;5011767;28;20401;-74
2024/04/02 01:57:27;;;;;;;14.25;1.50;;;;;;;;;;5011921;28;20068;-74
2024/04/02 02:00:31;;;;;;;20.33;1.55;;;;;;;;;;4999593;28;20044;-74
2024/04/02 02:03:35;;;;;;;13.70;1.90;;;;;;;;;;5011598;28;20056;-74
2024/04/02 02:06:40;;;;;;;12.43;1.80;;;;;;;;;;5011686;28;20041;-74
2024/04/02 02:09:44;;;;;;;11.38;1.55;;;;;;;;;;5011655;28;20060;-74
2024/04/02 02:12:48;;;;;;;13.18;1.90;;;;;;;;;;5012120;28;20045;-73
2024/04/02 02:16:02;;;;;;;16.95;2.03;;;15.40;99.90;;;;;;5011638;28;20045;-73
2024/04/02 02:19:06;;;;;;;14.18;1.67;;;;;;;;;;4999137;28;20045;-73
2024/04/02 02:22:11;;;;;;;13.63;1.80;;;;;;;;;;5011402;28;20390;-74
2024/04/02 02:25:15;;;;;;;13.05;1.90;;;;;;;;;;5011269;28;20051;-73
2024/04/02 02:28:20;;;;;;;19.60;2.63;;;;;;;;;;5011192;28;20057;-73
2024/04/02 02:31:24;;;;;;;16.10;2.30;;;;;;;;;;4998962;28;20045;-74
2024/04/02 02:34:28;;;;;;;19.42;2.88;;;;;;;;;;5011166;28;20045;-73
2024/04/02 02:37:32;;;;;;;9.48;1.70;;;;;;;;;;4999054;28;20053;-74
2024/04/02 02:40:36;;;;;;;20.38;2.58;;;;;;;;;;5011301;28;20644;-74
2024/04/02 02:43:41;;;;;;;12.07;2.33;;;;;;;;;;5010899;28;20057;-74
2024/04/02 02:46:45;;;;;;;15.20;2.00;;;;;;;;;;5011151;28;20057;-74
2024/04/02 02:49:50;;;;;;;9.63;1.73;;;;;;;;;;4998810;28;20048;-73
2024/04/02 02:52:56;;;;;;;17.50;2.17;;;;;;;;;;5011294;28;20041;-73
2024/04/02 02:56:00;;;;;;;18.05;2.20;;;;;;;;;;5013587;28;20388;-73
2024/04/02 02:59:04;;;;;;;18.75;2.50;;;;;;;;;;5015281;28;20044;-73
2024/04/02 03:02:09;;;;;;;12.20;2.10;;;;;;;;;;5015120;28;20044;-74
2024/04/02 03:05:13;;;;;;;10.32;2.00;;;15.70;99.20;;;;;;5015108;28;20056;-75
2024/04/02 03:08:17;;;;;;;15.77;2.00;;;;;;;;;;5015282;28;20053;-74
2024/04/02 03:11:22;;;;;;;12.52;2.20;;;;;;;;;;5015108;28;20048;-74
2024/04/02 03:14:26;;;;;;;14.93;1.85;;;;;;;;;;5002764;28;20053;-75
2024/04/02 03:17:31;;;;;;;9.38;1.60;;;15.90;98.30;;;;;;5014582;28;20045;-75
2024/04/02 03:20:38;;;;;;;15.57;1.70;;;15.90;98.10;;;;;;5015044;28;20519;-74
2024/04/02 03:23:43;;;;;;;18.52;2.15;;;;;;;;;;5002364;28;20600;-75
2024/04/02 03:26:47;;;;;;;20.77;2.72;;;;;;;;;;5014886;28;20045;-76
2024/04/02 03:29:51;;;;;;;14.77;2.47;;;;;;;;;;5014663;28;20049;-74
2024/04/02 03:32:55;;;;;;;12.00;1.88;;;;;;;;;;5002638;28;20057;-74
2024/04/02 03:36:04;;;;;;;11.27;2.20;;;15.50;97.70;;;;;;5014683;28;20049;-74
2024/04/02 03:39:08;;;;;;;10.23;2.17;;;;;;;;;;5014498;28;20049;-74
2024/04/02 03:42:12;;;;;;;15.20;2.17;;;;;;;;;;5014451;28;20045;-73
2024/04/02 03:45:17;;;;;;;11.60;1.90;;;;;;;;;;5014285;28;20425;-74
2024/04/02 03:48:21;;;;;;;17.73;2.17;;;;;;;;;;5014442;28;20084;-73
2024/04/02 03:51:25;;;;;;;14.98;2.30;;;;;;;;;;5014384;28;20057;-73
2024/04/02 03:54:29;;;;;;;14.20;2.22;;;;;;;;;;5013912;28;20056;-73
2024/04/02 03:57:34;;;;;;;10.48;2.08;;;;;;;;;;5014192;28;20053;-75
2024/04/02 04:00:44;;;;;;;13.23;2.22;;;15.40;97.70;;;;;;5013927;28;20049;-75
2024/04/02 04:03:48;;;;;;;21.40;2.35;;;;;;;;;;5013993;28;20226;-74
2024/04/02 04:06:53;;;;;;;15.10;2.78;;;;;;;;;;5012456;28;20533;-73
2024/04/02 04:09:57;;;;;;;12.90;1.73;;;;;;;;;;5013419;28;20049;-73
2024/04/02 04:13:01;;;;;;;8.55;1.95;;;;;;;;;;5013795;28;20044;-73
2024/04/02 04:16:07;;;;;;;20.10;2.25;;;;;;;;;;5013461;28;20505;-73
2024/04/02 04:19:11;;;;;;;16.27;2.25;;;;;;;;;;5013526;28;20072;-73
2024/04/02 04:22:15;;;;;;;9.52;1.85;;;;;;;;;;5013370;28;20553;-73
2024/04/02 04:25:19;;;;;;;23.00;2.45;;;;;;;;;;5013483;28;20046;-73
2024/04/02 04:28:25;;;;;;;16.48;2.40;;;14.80;98.60;;;;;;5013544;28;20060;-73
2024/04/02 04:31:29;;;;;;;9.18;1.92;;;;;;;;;;5013333;28;20044;-74
2024/04/02 04:34:33;;;;;;;14.38;2.10;;;;;;;;;;5001302;28;20118;-74
2024/04/02 04:37:38;;;;;;;9.60;2.22;;;;;;;;;;5013159;28;20049;-73
2024/04/02 04:40:42;;;;;;;16.58;3.47;;;;;;;;;;4990107;28;20037;-73
2024/04/02 04:43:47;;;;;;;11.68;2.33;;;;;;;;;;5013051;28;20050;-73
2024/04/02 04:46:52;;;;;;;18.05;2.95;;;;;;;;;;5013262;28;20048;-74
2024/04/02 04:49:56;;;;;;;17.30;2.60;;;;;;;;;;5012914;28;20045;-73
2024/04/02 04:53:00;;;;;;;13.13;2.50;;;;;;;;;;5012386;28;20486;-73
2024/04/02 04:56:06;;;;;;;17.77;2.47;;;15.00;98.10;;;;;;5013125;28;20188;-73
2024/04/02 04:59:10;;;;;;;16.83;2.30;;;;;;;;;;5012994;28;20041;-73
2024/04/02 05:02:14;;;;;;;19.55;2.83;;;;;;;;;;5012781;28;20044;-74
2024/04/02 05:05:18;;;;;;;11.65;3.42;;;;;;;;;;5012473;28;20065;-73
2024/04/02 05:08:26;;;;;;;14.82;2.55;;;15.20;97.70;;;;;;5012720;28;20037;-73
2024/04/02 05:11:30;;;;;;;18.73;2.72;;;;;;;;;;5012388;28;20052;-73
2024/04/02 05:14:35;;;;;;;21.15;2.55;;;;;;;;;;5012608;28;20044;-73
2024/04/02 05:17:39;;;;;;;13.23;2.10;;;;;;;;;;5012337;28;20045;-73
2024/04/02 05:20:44;;;;;;;21.02;3.58;;;;;;;;;;5012496;28;20041;-74
2024/04/02 05:23:48;;;;;;;24.48;3.13;;;;;;;;;;5012417;28;20045;-74
2024/04/02 05:26:52;;;;;;;21.58;2.78;;;;;;;;;;5012610;28;20041;-72
2024/04/02 05:29:56;;;;;;;15.63;2.20;;;;;;;;;;5012548;28;20044;-73
2024/04/02 05:33:01;;;;;;;21.33;2.97;;;;;;;;;;5012361;28;20056;-70
2024/04/02 05:36:05;;;;;;;18.50;2.83;;;;;;;;;;5000002;28;20425;-71
2024/04/02 05:39:09;;;;;;;25.98;2.90;;;;;;;;;;5011565;28;20080;-71
2024/04/02 05:42:14;;;;;;;20.27;2.70;;;;;;;;;;5012315;28;20041;-70
2024/04/02 05:45:19;;;;;;;16.08;2.22;;;;;;;;;;5011760;28;20053;-70
2024/04/02 05:48:24;;;;;;;24.85;3.95;;;;;;;;;;5011947;28;20505;-71
2024/04/02 05:51:28;;;;;;;20.15;6.28;;;;;;;;;;5011797;28;20045;-71
2024/04/02 05:54:35;;;;;;;19.48;6.72;;;;;;;;;;4999977;28;20041;-71
2024/04/02 05:57:39;;;;;;;16.80;5.90;;;16.50;95.10;;;;;;5011759;28;20040;-71
2024/04/02 06:00:44;;;;;;;19.23;4.78;;;;;;;;;;5011801;28;20049;-71
2024/04/02 06:03:48;;;;;;;12.68;3.83;;;;;;;;;;5011926;28;20057;-70
2024/04/02 06:06:53;;;;;;;15.00;3.30;;;;;;;;;;5011647;28;20053;-71
2024/04/02 06:09:57;;;;;;;10.13;2.83;;;;;;;;;;5011181;28;20084;-71
2024/04/02 06:13:01;;;;;;;15.05;3.17;;;;;;;;;;5011873;28;20413;-74
2024/04/02 06:16:06;;;;;;;13.30;2.80;;;;;;;;;;5011343;28;20049;-72
2024/04/02 06:19:11;;;;;;;17.00;3.42;;;;;;;;;;5011312;28;20048;-73
2024/04/02 06:22:15;;;;;;;15.32;2.10;;;;;;;;;;5011123;28;20048;-71
2024/04/02 06:25:19;;;;;;;19.90;2.53;;;;;;;;;;5011327;28;20052;-70
2024/04/02 06:28:24;;;;;;;15.50;3.05;;;;;;;;;;5010422;28;20048;-71
2024/04/02 06:31:28;;;;;;;15.40;2.30;;;;;;;;;;4998467;28;20093;-71
2024/04/02 06:34:33;;;;;;;15.70;2.55;;;;;;;;;;5011423;28;20045;-72
2024/04/02 06:37:38;;;;;;;21.50;3.08;;;;;;;;;;5011167;28;20045;-70
2024/04/02 06:40:41;;;;;;;16.73;3.03;;;18.60;91.70;;;;;;5011164;28;20052;-70
2024/04/02 06:43:46;;;;;;;14.23;2.10;;;;;;;;;;5010685;28;20441;-70
2024/04/02 06:46:50;;;;;;;16.65;2.42;;;19.90;91.10;;;;;;5011308;28;20053;-71
2024/04/02 06:49:54;;;;;;;14.25;2.78;;;19.80;90.70;;;;;;5010738;28;20045;-70
2024/04/02 06:52:58;;;;;;;16.25;3.40;;;20.00;90.80;;;;;;5011270;28;20045;-72
2024/04/02 06:56:03;;;;;;;18.27;3.03;;;;;;;;;;5011145;28;20045;-71
2024/04/02 06:59:07;;;;;;;21.20;3.05;;;;;;;;;;5011178;28;20044;-69
2024/04/02 07:02:12;;;;;;;24.15;2.95;;;;;;;;;;5010991;28;20048;-69
2024/04/02 07:05:17;;;;;;;18.42;2.78;;;;;;;;;;5010743;28;20056;-69
2024/04/02 07:08:24;;;;;;;18.42;3.72;;;;;;;;;;5011054;28;20049;-71
2024/04/02 07:11:29;;;;;;;18.00;3.42;;;;;;;;;;5010691;28;20045;-71
2024/04/02 07:14:33;;;;;;;22.58;2.80;;;;;;;;;;5010676;28;20045;-70
2024/04/02 07:17:37;;;;;;;10.80;2.65;;;19.80;90.20;;;;;;5010972;28;20049;-72
2024/04/02 07:20:41;;;;;;;16.67;2.45;;;19.70;90.60;;;;;;5010631;28;20497;-73
2024/04/02 07:23:45;;;;;;;11.77;3.03;;;20.00;90.50;;;;;;4985932;28;20057;-69
2024/04/02 07:26:49;;;;;;;13.38;2.58;;;20.60;89.30;;;;;;5009226;28;20053;-71
2024/04/02 07:29:53;;;;;;;12.90;1.70;;;21.00;88.10;;;;;;5008979;28;20052;-72
2024/04/02 07:32:57;;;;;;;11.07;2.10;;;21.50;86.40;;;;;;4996898;28;20053;-69
2024/04/02 07:36:04;;;;;;;17.13;2.45;;;21.30;84.20;;;;;;5009988;28;20060;-71
2024/04/02 07:39:08;;;;;;;28.23;13.40;;;20.50;84.30;;;;;;4998080;28;20049;-72
2024/04/02 07:42:13;;;;;;;11.45;2.40;;;;;;;;;;5000663;28;20496;-71
2024/04/02 07:45:18;;;;;;;15.10;2.58;;;;;;;;;;5013839;28;20057;-70
2024/04/02 07:48:22;;;;;;;16.08;2.22;;;;;;;;;;5014128;28;20505;-69
2024/04/02 07:51:27;;;;;;;11.32;1.88;;;;;;;;;;5014297;28;20057;-72
2024/04/02 07:54:31;;;;;;;7.30;1.80;;;20.50;86.10;;;;;;5014311;28;20394;-73
2024/04/02 07:57:36;;;;;;;13.05;2.08;;;;;;;;;;5002100;28;20053;-72
2024/04/02 08:00:43;;;;;;;14.30;1.75;;;;;;;;;;5013708;28;20045;-79
2024/04/02 08:03:48;;;;;;;8.82;1.90;;;;;;;;;;5013994;28;20037;-71
2024/04/02 08:06:52;;;;;;;8.68;2.13;;;;;;;;;;5013868;28;20042;-69
2024/04/02 08:09:57;;;;;;;11.75;2.25;;;;;;;;;;5013679;28;20045;-71
2024/04/02 08:13:01;;;;;;;13.63;2.15;;;;;;;;;;5013678;28;20398;-72
2024/04/02 08:16:05;;;;;;;11.73;1.75;;;;;;;;;;5013713;28;20536;-73
2024/04/02 08:19:10;;;;;;;13.90;2.13;;;;;;;;;;5013750;28;20394;-71
2024/04/02 08:22:16;;;;;;;13.02;1.60;;;;;;;;;;5013467;28;20047;-70
2024/04/02 08:25:21;;;;;;;4.30;1.20;;;;;;;;;;5013165;28;20565;-71
2024/04/02 08:28:25;;;;;;;12.50;2.00;;;;;;;;;;5001443;28;20038;-71
2024/04/02 08:31:29;;;;;;;11.35;2.20;;;;;;;;;;5013438;28;20069;-71
2024/04/02 08:34:33;;;;;;;9.27;1.98;;;;;;;;;;5013546;28;20060;-72
2024/04/02 08:37:38;;;;;;;5.35;1.55;;;;;;;;;;5001086;28;20050;-71
2024/04/02 08:40:44;;;;;;;10.50;1.50;;;;;;;;;;5013049;28;20041;-70
2024/04/02 08:43:48;;;;;;;7.78;1.30;;;;;;;;;;5011945;28;20056;-72
2024/04/02 08:46:53;;;;;;;6.38;1.65;;;;;;;;;;5000703;28;20038;-69
2024/04/02 08:49:58;;;;;;;6.25;1.35;;;22.40;75.00;;;;;;5012874;28;20030;-70
2024/04/02 08:53:03;;;;;;;10.63;1.42;;;;;;;;;;5012013;28;20049;-71
2024/04/02 08:56:07;;;;;;;5.57;1.20;;;;;;;;;;5013002;28;20053;-69
2024/04/02 08:59:13;;;;;;;7.97;1.88;;;;;;;;;;5000325;28;20038;-69
2024/04/02 09:02:17;;;;;;;8.05;1.55;;;;;;;;;;5012872;28;20360;-71
2024/04/02 09:05:22;;;;;;;6.20;1.10;;;22.60;73.40;;;;;;5012635;28;20046;-72
2024/04/02 09:08:27;;;;;;;8.15;1.10;;;25.30;76.50;;;;;;5013007;28;20041;-70
2024/04/02 09:11:34;;;;;;;4.10;1.00;;;22.30;74.60;;;;;;4989203;28;20049;-71
2024/04/02 09:14:38;;;;;;;3.92;1.00;;;;;;;;;;5000411;28;20040;-67
2024/04/02 09:17:42;;;;;;;7.05;1.58;;;;;;;;;;5012324;28;20042;-67
2024/04/02 09:20:47;;;;;;;8.48;3.30;;;;;;;;;;5010185;28;20042;-70
2024/04/02 09:23:51;;;;;;;7.30;1.80;;;;;;;;;;5010347;28;20486;-69
2024/04/02 09:26:56;;;;;;;5.68;1.25;;;;;;;;;;5011101;28;20038;-69
2024/04/02 09:30:00;;;;;;;3.88;1.02;;;;;;;;;;5011516;28;20038;-68
2024/04/02 09:33:06;;;;;;;10.85;1.50;;;;;;;;;;5011905;28;20042;-67
2024/04/02 09:36:22;;;;;;;7.35;1.30;;;21.50;68.80;;;;;;5012296;28;20052;-70
2024/04/02 09:39:28;;;;;;;14.50;1.52;;;22.40;70.50;;;;;;5011980;28;20358;-69
2024/04/02 09:42:33;;;;;;;4.18;1.10;;;22.60;71.20;;;;;;5011929;28;20045;-68
2024/04/02 09:45:37;;;;;;;10.90;1.70;;;;;;;;;;5011584;28;20061;-70
2024/04/02 09:48:42;;;;;;;7.30;1.45;;;23.00;71.10;;;;;;5011076;28;20049;-69
2024/04/02 09:51:46;;;;;;;6.25;1.23;;;;;;;;;;5011483;28;20152;-69
2024/04/02 09:54:50;;;;;;;9.75;1.33;;;;;;;;;;5011455;28;20069;-69
2024/04/02 09:57:56;;;;;;;8.85;1.20;;;23.00;68.90;;;;;;5011952;28;20094;-70
2024/04/02 10:01:02;;;;;;;5.28;1.27;;;23.20;70.10;;;;;;5011558;28;20053;-68
2024/04/02 10:04:09;;;;;;;4.75;1.15;;;23.10;70.40;;;;;;5011538;28;20053;-69
2024/04/02 10:07:24;;;;;;;4.68;1.30;;;;;;;;;;5010839;28;20057;-70
2024/04/02 10:10:29;;;;;;;11.82;1.50;;;;;;;;;;4998676;28;20033;-69
2024/04/02 10:13:37;;;;;;;7.78;1.70;;;22.30;69.60;;;;;;5010830;28;20064;-77
2024/04/02 10:16:47;;;;;;;5.93;1.35;;;23.20;70.60;;;;;;5009963;28;20065;-70
2024/04/02 10:19:51;;;;;;;4.65;1.27;;;;;;;;;;5010971;28;20048;-72
2024/04/02 10:22:56;;;;;;;7.78;1.58;;;;;;;;;;5011450;28;20050;-70
2024/04/02 10:26:01;;;;;;;9.05;1.25;;;;;;;;;;5010789;28;20054;-70
2024/04/02 10:29:07;;;;;;;8.05;1.33;;;22.70;68.00;;;;;;5008819;28;20041;-76
2024/04/02 10:32:13;;;;;;;5.32;1.10;;;22.60;68.00;;;;;;4998657;28;20057;-71
2024/04/02 10:35:18;;;;;;;3.80;1.23;;;21.60;68.50;;;;;;4998531;28;20386;-75
2024/04/02 10:38:22;;;;;;;5.25;1.10;;;;;;;;;;5010092;28;20045;-69
2024/04/02 10:41:30;;;;;;;5.43;1.05;;;22.10;68.40;;;;;;5010131;28;20405;-68
2024/04/02 10:44:34;;;;;;;5.22;1.40;;;23.50;70.40;;;;;;5008745;28;20690;-70
2024/04/02 10:47:48;;;;;;;11.85;1.48;;;23.70;70.90;;;;;;4998097;28;20049;-69
2024/04/02 10:50:52;;;;;;;6.15;1.70;;;;;;;;;;5010948;28;20048;-69
2024/04/02 10:53:57;;;;;;;7.43;1.33;;;23.50;72.00;;;;;;5010837;28;20038;-70
2024/04/02 10:57:02;;;;;;;6.03;1.00;;;;;;;;;;5010755;28;20045;-71
2024/04/02 11:00:09;;;;;;;8.57;1.30;;;23.70;72.80;;;;;;5010613;28;20034;-71
2024/04/02 11:03:14;;;;;;;7.60;1.50;;;;;;;;;;5010619;28;20092;-71
2024/04/02 11:06:18;;;;;;;4.97;1.17;;;;;;;;;;5010652;28;20045;-70
2024/04/02 11:09:22;;;;;;;8.82;1.33;;;;;;;;;;5010785;28;20045;-70
2024/04/02 11:12:27;;;;;;;14.13;2.08;;;;;;;;;;5010804;28;20477;-69
2024/04/02 11:15:31;;;;;;;6.03;1.98;;;;;;;;;;5010826;28;20385;-69
2024/04/02 11:18:36;;;;;;;11.43;2.35;;;22.30;75.00;;;;;;5014631;28;20042;-70
2024/04/02 11:21:40;;;;;;;11.90;1.30;;;;;;;;;;5014607;28;20061;-68
2024/04/02 11:24:58;;;;;;;6.00;1.38;;;;;;;;;;5014505;28;20049;-70
2024/04/02 11:28:05;;;;;;;5.43;1.65;;;22.70;76.70;;;;;;5013882;28;20164;-69
2024/04/02 11:31:11;;;;;;;21.30;3.03;;;20.80;75.70;;;;;;5014258;28;20065;-69
2024/04/02 11:34:15;;;;;;;8.80;2.65;;;;;;;;;;5014487;28;20068;-71
2024/04/02 11:37:19;;;;;;;15.98;1.83;;;;;;;;;;5014304;28;20045;-69
2024/04/02 11:40:24;;;;;;;6.28;1.23;;;;;;;;;;5001769;28;20045;-69
2024/04/02 11:43:28;;;;;;;6.80;1.30;;;;;;;;;;5013804;28;20050;-70
2024/04/02 11:46:32;;;;;;;11.90;1.70;;;;;;;;;;5013891;28;20367;-71
2024/04/02 11:49:43;;;;;;;7.50;1.30;;;22.00;76.50;;;;;;5013997;28;20516;-71
2024/04/02 11:52:49;;;;;;;10.85;1.38;;;;;;;;;;5001779;28;20037;-70
2024/04/02 11:55:53;;;;;;;7.68;1.45;;;;;;;;;;5013585;28;20037;-72
2024/04/02 12:02:22;;;;;;;5.55;1.42;;;;;;;;;;5014060;28;20034;-71
2024/04/02 12:05:27;;;;;;;9.13;1.27;;;;;;;;;;5013445;28;20359;-70
2024/04/02 12:08:31;;;;;;;6.93;0.93;;;;;;;;;;5013770;28;20042;-70
2024/04/02 12:11:35;;;;;;;10.30;1.55;;;;;;;;;;5013911;28;20050;-69
2024/04/02 12:14:39;;;;;;;7.30;1.40;;;;;;;;;;5012800;28;20041;-72
2024/04/02 12:17:44;;;;;;;7.60;1.50;;;;;;;;;;5013583;28;20042;-71
2024/04/02 12:20:48;;;;;;;5.50;1.48;;;;;;;;;;5013516;28;20045;-70
2024/04/02 12:23:52;;;;;;;9.32;1.70;;;;;;;;;;5013622;28;20046;-71
2024/04/02 12:26:57;;;;;;;10.25;1.40;;;;;;;;;;5012711;28;20045;-72
2024/04/02 12:30:04;;;;;;;10.43;1.60;;;;;;;;;;5013105;28;20045;-70
2024/04/02 12:33:08;;;;;;;10.15;1.85;;;;;;;;;;5013385;28;20064;-71
2024/04/02 12:36:13;;;;;;;10.77;2.13;;;;;;;;;;5013288;28;20049;-71
2024/04/02 12:39:17;;;;;;;5.65;1.17;;;;;;;;;;5013111;28;20120;-72
2024/04/02 12:42:22;;;;;;;8.15;1.80;;;;;;;;;;5013352;28;20359;-70
2024/04/02 12:45:26;;;;;;;10.90;1.60;;;;;;;;;;4973900;28;20046;-70
2024/04/02 12:48:30;;;;;;;8.25;1.67;;;;;;;;;;4974186;28;20414;-70
2024/04/02 12:51:35;;;;;;;6.07;1.30;;;;;;;;;;4974106;28;20043;-69
2024/04/02 12:54:39;;;;;;;7.82;1.80;;;;;;;;;;4973986;28;20034;-67
2024/04/02 12:57:45;;;;;;;11.15;1.88;;;22.60;78.50;;;;;;4973975;28;20039;-69
2024/04/02 13:00:49;;;;;;;9.95;1.80;;;;;;;;;;4973641;28;20057;-70
2024/04/02 13:03:53;;;;;;;7.50;1.40;;;;;;;;;;4973564;28;20034;-69
2024/04/02 13:06:58;;;;;;;11.52;1.45;;;;;;;;;;4973551;28;20047;-71
2024/04/02 13:10:04;;;;;;;6.47;1.50;;;;;;;;;;4973404;28;20042;-68
2024/04/02 13:13:08;;;;;;;17.88;3.20;;;;;;;;;;4972671;28;20038;-72
2024/04/02 13:16:18;;;;;;;9.05;1.38;;;21.40;76.50;;;;;;4973694;28;20533;-71
2024/04/02 13:19:22;;;;;;;6.88;1.00;;;;;;;;;;4973683;28;20054;-69
2024/04/02 13:22:27;;;;;;;9.18;1.20;;;;;;;;;;4973627;28;20031;-69
2024/04/02 13:25:31;;;;;;;7.90;1.40;;;;;;;;;;4973382;28;20050;-71
2024/04/02 13:28:37;;;;;;;6.10;1.67;;;21.40;76.10;;;;;;4973298;28;20050;-72
2024/04/02 13:31:41;;;;;;;7.88;1.45;;;;;;;;;;4973504;28;20049;-72
2024/04/02 13:34:46;;;;;;;10.27;1.73;;;;;;;;;;4973512;28;20039;-71
2024/04/02 13:37:50;;;;;;;13.38;1.60;;;;;;;;;;4972367;28;20105;-72
2024/04/02 13:40:54;;;;;;;11.70;1.55;;;;;;;;;;4973357;28;20053;-70
2024/04/02 13:43:58;;;;;;;8.10;1.15;;;;;;;;;;4993604;28;20081;-68
2024/04/02 13:47:03;;;;;;;10.63;1.50;;;;;;;;;;5011020;28;20050;-71
2024/04/02 13:50:08;;;;;;;13.38;2.75;;;;;;;;;;5011763;28;20040;-70
2024/04/02 13:53:11;;;;;;;11.48;2.22;;;;;;;;;;5012099;28;20053;-71
2024/04/02 13:56:16;;;;;;;16.17;2.10;;;;;;;;;;5012226;28;20052;-74
2024/04/02 13:59:21;;;;;;;12.90;1.60;;;;;;;;;;5012004;28;20470;-69
2024/04/02 14:02:26;;;;;;;12.13;1.60;;;;;;;;;;5012046;28;20053;-69
2024/04/02 14:05:30;;;;;;;9.30;1.70;;;;;;;;;;5012406;28;20049;-68
2024/04/02 14:08:35;;;;;;;8.18;1.50;;;;;;;;;;5025285;28;20041;-69
2024/04/02 14:11:40;;;;;;;7.28;1.92;;;20.90;84.30;;;;;;5019764;28;20038;-68
2024/04/02 14:14:44;;;;;;;10.63;1.65;;;;;;;;;;5014537;28;20494;-69
2024/04/02 14:17:49;;;;;;;17.58;2.05;;;;;;;;;;5012193;28;20041;-69
2024/04/02 14:20:54;;;;;;;16.38;2.50;;;20.40;85.80;;;;;;5018306;28;20044;-69
2024/04/02 14:24:00;;;;;;;10.40;1.60;;;;;;;;;;5018439;28;20041;-72
2024/04/02 14:27:04;;;;;;;12.20;1.65;;;;;;;;;;5013666;28;20371;-69
2024/04/02 14:30:08;;;;;;;9.02;1.75;;;;;;;;;;5011938;28;20045;-72
2024/04/02 14:33:13;;;;;;;10.70;1.67;;;;;;;;;;5011965;28;20034;-72
2024/04/02 14:36:18;;;;;;;9.57;1.50;;;20.60;84.30;;;;;;5011687;28;20148;-70
2024/04/02 14:39:22;;;;;;;7.60;1.60;;;;;;;;;;5012133;28;20159;-71
2024/04/02 14:42:26;;;;;;;11.60;2.33;;;;;;;;;;5011475;28;20042;-69
2024/04/02 14:45:31;;;;;;;8.57;1.60;;;;;;;;;;5011009;28;20049;-69
2024/04/02 14:48:38;;;;;;;16.23;2.97;;;;;;;;;;5010988;28;20038;-69
2024/04/02 14:51:43;;;;;;;12.48;2.08;;;;;;;;;;5010113;28;20045;-69
2024/04/02 14:54:46;;;;;;;8.18;1.70;;;;;;;;;;5010336;28;20048;-69
2024/04/02 14:57:51;;;;;;;10.52;1.77;;;;;;;;;;5010972;28;20371;-70
2024/04/02 15:00:55;;;;;;;11.82;1.65;;;;;;;;;;4998956;28;20045;-72
2024/04/02 15:04:00;;;;;;;12.85;1.98;;;;;;;;;;5011195;28;20053;-71
2024/04/02 15:07:04;;;;;;;11.68;2.08;;;;;;;;;;5010858;28;20205;-70
2024/04/02 15:10:08;;;;;;;9.88;2.05;;;;;;;;;;5011006;28;20048;-71
2024/04/02 15:13:13;;;;;;;6.95;1.70;;;;;;;;;;5011593;28;20037;-70
2024/04/02 15:16:18;;;;;;;9.90;1.65;;;;;;;;;;5010795;28;20041;-70
2024/04/02 15:19:21;;;;;;;13.45;2.30;;;;;;;;;;5010799;28;20038;-68
2024/04/02 15:22:26;;;;;;;12.57;2.00;;;;;;;;;;5011023;28;20053;-70
2024/04/02 15:25:30;;;;;;;8.45;1.63;;;;;;;;;;5010785;28;20053;-68
2024/04/02 15:28:35;;;;;;;11.23;1.85;;;;;;;;;;5011216;28;20042;-69
2024/04/02 15:31:39;;;;;;;13.77;2.65;;;;;;;;;;5010884;28;20061;-70
2024/04/02 15:34:48;;;;;;;9.85;2.10;;;20.50;78.30;;;;;;5010745;28;20144;-69
2024/04/02 15:37:52;;;;;;;10.63;2.20;;;;;;;;;;5010881;28;20045;-68
2024/04/02 15:40:56;;;;;;;9.75;1.70;;;;;;;;;;5010586;28;20049;-71
2024/04/02 15:44:00;;;;;;;11.27;1.40;;;;;;;;;;5010131;28;20050;-68
2024/04/02 15:47:05;;;;;;;13.60;2.78;;;;;;;;;;5010331;28;20073;-70
2024/04/02 15:50:09;;;;;;;14.68;2.08;;;;;;;;;;5010414;28;20045;-68
2024/04/02 15:53:14;;;;;;;11.85;2.00;;;;;;;;;;5010312;28;20109;-68
2024/04/02 15:56:21;;;;;;;16.77;2.30;;;19.80;79.40;;;;;;5010492;28;20045;-70
2024/04/02 15:59:25;;;;;;;14.65;1.90;;;;;;;;;;5010127;28;20041;-70
2024/04/02 16:02:30;;;;;;;12.35;1.90;;;;;;;;;;5011855;28;20057;-71
2024/04/02 16:05:35;;;;;;;15.18;2.10;;;;;;;;;;5013658;28;20045;-70
2024/04/02 16:08:40;;;;;;;14.82;2.17;;;;;;;;;;5013435;28;20413;-70
2024/04/02 16:11:44;;;;;;;8.32;1.77;;;;;;;;;;5001658;28;20398;-69
2024/04/02 16:14:48;;;;;;;11.73;2.20;;;;;;;;;;5013657;28;20038;-71
2024/04/02 16:17:52;;;;;;;11.82;1.90;;;;;;;;;;5013618;28;20049;-73
2024/04/02 16:20:57;;;;;;;9.63;1.55;;;;;;;;;;5013622;28;20049;-71
2024/04/02 16:24:01;;;;;;;10.55;1.85;;;;;;;;;;5001430;28;20490;-74
2024/04/02 16:27:05;;;;;;;15.70;2.08;;;;;;;;;;5001034;28;20057;-71
2024/04/02 16:30:09;;;;;;;10.05;1.95;;;;;;;;;;5013038;28;20441;-71
2024/04/02 16:33:14;;;;;;;14.10;2.42;;;;;;;;;;5013244;28;20386;-70
2024/04/02 16:36:19;;;;;;;16.88;2.67;;;;;;;;;;5012925;28;20045;-72
2024/04/02 16:39:23;;;;;;;13.45;2.70;;;;;;;;;;5013083;28;20057;-70
2024/04/02 16:42:27;;;;;;;15.98;1.75;;;;;;;;;;5013318;28;20043;-69
2024/04/02 16:45:36;;;;;;;8.27;1.52;;;20.50;84.50;;;;;;5013086;28;20053;-71
2024/04/02 16:48:41;;;;;;;16.70;2.70;;;;;;;;;;5012605;28;20068;-69
2024/04/02 16:51:46;;;;;;;11.07;2.25;;;;;;;;;;5012158;28;20048;-70
2024/04/02 16:54:50;;;;;;;17.33;2.13;;;;;;;;;;5013118;28;20049;-68
2024/04/02 16:57:55;;;;;;;10.20;1.90;;;;;;;;;;5012882;28;20048;-69
2024/04/02 17:01:03;;;;;;;15.43;2.30;;;19.50;83.40;;;;;;5012832;28;20065;-68
2024/04/02 17:04:08;;;;;;;13.95;1.98;;;;;;;;;;5012519;28;20450;-69
2024/04/02 17:07:12;;;;;;;16.92;2.30;;;;;;;;;;5012211;28;20129;-70
2024/04/02 17:10:17;;;;;;;15.85;4.88;;;;;;;;;;5012289;28;20045;-69
2024/04/02 17:13:24;;;;;;;17.85;5.97;;;19.30;84.40;;;;;;5011951;28;20053;-72
2024/04/02 17:16:29;;;;;;;20.15;4.53;;;;;;;;;;4999952;28;20124;-72
2024/04/02 17:19:33;;;;;;;13.05;2.40;;;;;;;;;;5012081;28;20045;-68
2024/04/02 17:22:41;;;;;;;11.10;2.75;;;19.00;85.00;;;;;;5012519;28;20056;-68
2024/04/02 17:25:45;;;;;;;18.08;2.35;;;;;;;;;;5012119;28;20049;-71
2024/04/02 17:28:49;;;;;;;16.30;2.10;;;;;;;;;;5012270;28;20054;-69
2024/04/02 17:31:53;;;;;;;10.88;2.47;;;;;;;;;;5012155;28;20041;-71
2024/04/02 17:34:57;;;;;;;9.25;1.90;;;;;;;;;;5012079;28;20052;-70
2024/04/02 17:38:02;;;;;;;16.65;2.35;;;;;;;;;;5012004;28;20482;-70
2024/04/02 17:41:08;;;;;;;14.80;2.63;;;;;;;;;;5011872;28;20185;-70
2024/04/02 17:44:12;;;;;;;26.67;4.40;;;;;;;;;;5011582;28;20053;-68
2024/04/02 17:47:16;;;;;;;9.90;2.30;;;;;;;;;;5011721;28;20069;-72
2024/04/02 17:50:21;;;;;;;14.82;2.80;;;;;;;;;;5011909;28;20034;-72